sensor_id;sensor_type;location;lat;lon;timestamp;temperature;humidity
22224;DHT22;11281;52.194;21.006;2022-09-30T00:04:05;2.50;99.90
22224;DHT22;11281;52.194;21.006;2022-09-30T00:08:28;2.30;99.90
22224;DHT22;11281;52.194;21.006;2022-09-30T00:12:51;2.30;99.90
22224;DHT22;11281;52.194;21.006;2022-09-30T00:17:13;2.30;99.90
22224;DHT22;11281;52.194;21.006;2022-09-30T00:21:35;2.30;99.90
22224;DHT22;11281;52.194;21.006;2022-09-30T00:25:59;2.30;99.90
22224;DHT22;11281;52.194;21.006;2022-09-30T00:30:22;2.30;99.90
22224;DHT22;11281;52.194;21.006;2022-09-30T00:34:43;2.20;99.90
22224;DHT22;11281;52.194;21.006;2022-09-30T00:39:07;2.20;99.90
22224;DHT22;11281;52.194;21.006;2022-09-30T00:43:44;2.10;99.90
22224;DHT22;11281;52.194;21.006;2022-09-30T00:48:16;2.10;99.90
22224;DHT22;11281;52.194;21.006;2022-09-30T00:52:47;2.00;99.90
22224;DHT22;11281;52.194;21.006;2022-09-30T00:57:30;2.00;99.90
22224;DHT22;11281;52.194;21.006;2022-09-30T01:01:52;1.90;99.90
22224;DHT22;11281;52.194;21.006;2022-09-30T01:06:15;1.90;99.90
22224;DHT22;11281;52.194;21.006;2022-09-30T01:10:37;2.10;99.90
22224;DHT22;11281;52.194;21.006;2022-09-30T01:14:59;2.10;99.90
22224;DHT22;11281;52.194;21.006;2022-09-30T01:20:16;2.20;99.90
22224;DHT22;11281;52.194;21.006;2022-09-30T01:34:05;2.70;99.90
22224;DHT22;11281;52.194;21.006;2022-09-30T01:43:46;2.70;99.90
22224;DHT22;11281;52.194;21.006;2022-09-30T01:48:10;2.60;99.90
22224;DHT22;11281;52.194;21.006;2022-09-30T01:57:21;2.40;99.90
22224;DHT22;11281;52.194;21.006;2022-09-30T02:02:01;2.40;99.90
22224;DHT22;11281;52.194;21.006;2022-09-30T02:06:38;2.40;99.90
22224;DHT22;11281;52.194;21.006;2022-09-30T02:15:54;2.20;99.90
22224;DHT22;11281;52.194;21.006;2022-09-30T02:20:26;2.50;99.90
22224;DHT22;11281;52.194;21.006;2022-09-30T02:24:59;2.80;99.90
22224;DHT22;11281;52.194;21.006;2022-09-30T02:29:30;3.00;99.90
22224;DHT22;11281;52.194;21.006;2022-09-30T02:38:25;3.30;99.90
22224;DHT22;11281;52.194;21.006;2022-09-30T02:42:51;3.40;99.90
22224;DHT22;11281;52.194;21.006;2022-09-30T03:01:14;2.90;99.90
22224;DHT22;11281;52.194;21.006;2022-09-30T03:05:37;2.80;99.90
22224;DHT22;11281;52.194;21.006;2022-09-30T03:09:58;2.70;99.90
22224;DHT22;11281;52.194;21.006;2022-09-30T03:14:26;2.70;99.90
22224;DHT22;11281;52.194;21.006;2022-09-30T03:47:08;2.50;99.90
22224;DHT22;11281;52.194;21.006;2022-09-30T03:51:31;2.50;99.90
22224;DHT22;11281;52.194;21.006;2022-09-30T03:55:56;2.50;99.90
22224;DHT22;11281;52.194;21.006;2022-09-30T04:00:18;2.50;99.90
22224;DHT22;11281;52.194;21.006;2022-09-30T04:04:40;2.50;99.90
22224;DHT22;11281;52.194;21.006;2022-09-30T04:09:02;2.40;99.90
22224;DHT22;11281;52.194;21.006;2022-09-30T04:13:24;2.40;99.90
22224;DHT22;11281;52.194;21.006;2022-09-30T04:17:45;2.50;99.90
22224;DHT22;11281;52.194;21.006;2022-09-30T04:22:07;2.40;99.90
22224;DHT22;11281;52.194;21.006;2022-09-30T04:26:29;2.40;99.90
22224;DHT22;11281;52.194;21.006;2022-09-30T04:30:51;2.40;99.90
22224;DHT22;11281;52.194;21.006;2022-09-30T04:35:14;2.30;99.90
22224;DHT22;11281;52.194;21.006;2022-09-30T04:39:35;2.30;99.90
22224;DHT22;11281;52.194;21.006;2022-09-30T04:43:57;2.30;99.90
22224;DHT22;11281;52.194;21.006;2022-09-30T04:48:20;2.30;99.90
22224;DHT22;11281;52.194;21.006;2022-09-30T04:52:44;2.40;99.90
22224;DHT22;11281;52.194;21.006;2022-09-30T04:57:06;2.50;99.90
22224;DHT22;11281;52.194;21.006;2022-09-30T05:01:28;2.50;99.90
22224;DHT22;11281;52.194;21.006;2022-09-30T05:05:50;2.60;99.90
22224;DHT22;11281;52.194;21.006;2022-09-30T05:10:12;2.70;99.90
22224;DHT22;11281;52.194;21.006;2022-09-30T05:14:33;2.70;99.90
22224;DHT22;11281;52.194;21.006;2022-09-30T05:18:55;2.70;99.90
22224;DHT22;11281;52.194;21.006;2022-09-30T05:23:18;2.80;99.90
22224;DHT22;11281;52.194;21.006;2022-09-30T05:27:40;2.90;99.90
22224;DHT22;11281;52.194;21.006;2022-09-30T05:32:02;2.90;99.90
22224;DHT22;11281;52.194;21.006;2022-09-30T05:36:23;2.90;99.90
22224;DHT22;11281;52.194;21.006;2022-09-30T05:40:45;2.90;99.90
22224;DHT22;11281;52.194;21.006;2022-09-30T05:45:07;3.10;99.90
22224;DHT22;11281;52.194;21.006;2022-09-30T05:49:29;3.20;99.90
22224;DHT22;11281;52.194;21.006;2022-09-30T05:53:51;3.20;99.90
22224;DHT22;11281;52.194;21.006;2022-09-30T05:58:16;3.30;99.90
22224;DHT22;11281;52.194;21.006;2022-09-30T06:02:38;3.40;99.90
22224;DHT22;11281;52.194;21.006;2022-09-30T06:07:01;3.60;99.90
22224;DHT22;11281;52.194;21.006;2022-09-30T06:11:23;3.80;99.90
22224;DHT22;11281;52.194;21.006;2022-09-30T06:15:54;4.10;99.90
22224;DHT22;11281;52.194;21.006;2022-09-30T06:20:20;4.40;99.90
22224;DHT22;11281;52.194;21.006;2022-09-30T06:24:43;4.80;99.90
22224;DHT22;11281;52.194;21.006;2022-09-30T06:29:05;5.00;99.90
22224;DHT22;11281;52.194;21.006;2022-09-30T06:33:27;5.20;99.90
22224;DHT22;11281;52.194;21.006;2022-09-30T06:37:52;5.50;99.90
22224;DHT22;11281;52.194;21.006;2022-09-30T06:42:13;5.70;99.90
22224;DHT22;11281;52.194;21.006;2022-09-30T06:46:35;6.00;99.90
22224;DHT22;11281;52.194;21.006;2022-09-30T06:50:57;6.10;99.90
22224;DHT22;11281;52.194;21.006;2022-09-30T06:55:19;6.30;99.90
22224;DHT22;11281;52.194;21.006;2022-09-30T06:59:42;6.50;99.90
22224;DHT22;11281;52.194;21.006;2022-09-30T07:04:04;6.80;99.90
22224;DHT22;11281;52.194;21.006;2022-09-30T07:08:30;7.00;99.90
22224;DHT22;11281;52.194;21.006;2022-09-30T07:12:53;7.30;99.90
22224;DHT22;11281;52.194;21.006;2022-09-30T07:17:15;7.30;99.90
22224;DHT22;11281;52.194;21.006;2022-09-30T07:21:37;7.50;99.90
22224;DHT22;11281;52.194;21.006;2022-09-30T07:26:00;7.80;99.90
22224;DHT22;11281;52.194;21.006;2022-09-30T07:30:24;8.30;99.90
22224;DHT22;11281;52.194;21.006;2022-09-30T07:34:46;8.70;99.90
22224;DHT22;11281;52.194;21.006;2022-09-30T07:39:09;8.70;99.90
22224;DHT22;11281;52.194;21.006;2022-09-30T07:43:31;8.80;99.90
22224;DHT22;11281;52.194;21.006;2022-09-30T07:48:00;8.90;99.90
22224;DHT22;11281;52.194;21.006;2022-09-30T07:52:22;9.20;99.90
22224;DHT22;11281;52.194;21.006;2022-09-30T07:56:44;9.00;99.90
22224;DHT22;11281;52.194;21.006;2022-09-30T08:01:07;8.90;99.90
22224;DHT22;11281;52.194;21.006;2022-09-30T08:05:29;9.10;99.90
22224;DHT22;11281;52.194;21.006;2022-09-30T08:09:51;9.40;99.90
22224;DHT22;11281;52.194;21.006;2022-09-30T08:14:14;9.70;99.90
22224;DHT22;11281;52.194;21.006;2022-09-30T08:18:38;10.00;99.90
22224;DHT22;11281;52.194;21.006;2022-09-30T08:23:00;10.10;99.90
22224;DHT22;11281;52.194;21.006;2022-09-30T08:27:21;10.30;99.90
22224;DHT22;11281;52.194;21.006;2022-09-30T08:31:43;10.70;99.90
22224;DHT22;11281;52.194;21.006;2022-09-30T08:36:13;10.80;99.90
22224;DHT22;11281;52.194;21.006;2022-09-30T08:40:54;11.10;99.90
22224;DHT22;11281;52.194;21.006;2022-09-30T08:45:28;11.20;99.90
22224;DHT22;11281;52.194;21.006;2022-09-30T08:55:27;11.80;99.90
22224;DHT22;11281;52.194;21.006;2022-09-30T08:59:59;11.80;99.90
22224;DHT22;11281;52.194;21.006;2022-09-30T09:04:26;11.80;99.90
22224;DHT22;11281;52.194;21.006;2022-09-30T09:13:51;12.00;99.90
22224;DHT22;11281;52.194;21.006;2022-09-30T09:23:10;12.30;99.90
22224;DHT22;11281;52.194;21.006;2022-09-30T09:27:42;12.30;99.90
22224;DHT22;11281;52.194;21.006;2022-09-30T09:32:12;12.40;99.90
22224;DHT22;11281;52.194;21.006;2022-09-30T09:46:43;12.30;99.90
22224;DHT22;11281;52.194;21.006;2022-09-30T09:51:29;12.20;99.90
22224;DHT22;11281;52.194;21.006;2022-09-30T09:55:55;12.20;99.90
22224;DHT22;11281;52.194;21.006;2022-09-30T10:00:22;12.10;99.90
22224;DHT22;11281;52.194;21.006;2022-09-30T10:05:03;12.00;99.90
22224;DHT22;11281;52.194;21.006;2022-09-30T10:09:37;11.80;99.90
22224;DHT22;11281;52.194;21.006;2022-09-30T10:14:00;12.10;99.90
22224;DHT22;11281;52.194;21.006;2022-09-30T10:18:33;12.50;99.90
22224;DHT22;11281;52.194;21.006;2022-09-30T10:23:14;12.60;99.90
22224;DHT22;11281;52.194;21.006;2022-09-30T10:32:15;13.30;99.90
22224;DHT22;11281;52.194;21.006;2022-09-30T10:36:39;13.30;99.90
22224;DHT22;11281;52.194;21.006;2022-09-30T10:41:03;13.20;99.90
22224;DHT22;11281;52.194;21.006;2022-09-30T10:45:32;13.30;99.90
22224;DHT22;11281;52.194;21.006;2022-09-30T10:50:02;13.50;99.90
22224;DHT22;11281;52.194;21.006;2022-09-30T10:54:49;13.40;99.90
22224;DHT22;11281;52.194;21.006;2022-09-30T10:59:36;13.40;99.90
22224;DHT22;11281;52.194;21.006;2022-09-30T11:08:35;13.00;99.90
22224;DHT22;11281;52.194;21.006;2022-09-30T11:18:15;13.20;99.90
22224;DHT22;11281;52.194;21.006;2022-09-30T11:22:57;13.30;99.90
22224;DHT22;11281;52.194;21.006;2022-09-30T11:37:28;13.40;99.90
22224;DHT22;11281;52.194;21.006;2022-09-30T11:52:14;13.60;99.90
22224;DHT22;11281;52.194;21.006;2022-09-30T12:01:52;13.50;99.90
22224;DHT22;11281;52.194;21.006;2022-09-30T12:06:24;13.30;99.90
22224;DHT22;11281;52.194;21.006;2022-09-30T12:11:17;13.40;99.90
22224;DHT22;11281;52.194;21.006;2022-09-30T12:15:44;13.60;99.90
22224;DHT22;11281;52.194;21.006;2022-09-30T12:20:31;13.60;99.90
22224;DHT22;11281;52.194;21.006;2022-09-30T12:24:56;13.70;99.90
22224;DHT22;11281;52.194;21.006;2022-09-30T12:49:21;13.40;99.90
22224;DHT22;11281;52.194;21.006;2022-09-30T12:53:49;13.20;99.90
22224;DHT22;11281;52.194;21.006;2022-09-30T13:02:57;13.10;99.90
22224;DHT22;11281;52.194;21.006;2022-09-30T13:07:23;13.20;99.90
22224;DHT22;11281;52.194;21.006;2022-09-30T13:21:28;13.40;99.90
22224;DHT22;11281;52.194;21.006;2022-09-30T13:25:54;13.30;99.90
22224;DHT22;11281;52.194;21.006;2022-09-30T13:34:52;13.30;99.90
22224;DHT22;11281;52.194;21.006;2022-09-30T13:39:42;13.50;99.90
22224;DHT22;11281;52.194;21.006;2022-09-30T13:44:11;13.30;99.90
22224;DHT22;11281;52.194;21.006;2022-09-30T13:48:39;13.30;99.90
22224;DHT22;11281;52.194;21.006;2022-09-30T13:53:06;13.10;99.90
22224;DHT22;11281;52.194;21.006;2022-09-30T13:57:44;13.20;99.90
22224;DHT22;11281;52.194;21.006;2022-09-30T14:22:06;12.90;99.90
22224;DHT22;11281;52.194;21.006;2022-09-30T14:40:51;12.60;99.90
22224;DHT22;11281;52.194;21.006;2022-09-30T14:45:23;12.50;99.90
22224;DHT22;11281;52.194;21.006;2022-09-30T14:49:47;12.40;99.90
22224;DHT22;11281;52.194;21.006;2022-09-30T14:54:35;12.30;99.90
22224;DHT22;11281;52.194;21.006;2022-09-30T14:59:18;12.40;99.90
22224;DHT22;11281;52.194;21.006;2022-09-30T15:03:44;12.50;99.90
22224;DHT22;11281;52.194;21.006;2022-09-30T15:08:18;12.40;99.90
22224;DHT22;11281;52.194;21.006;2022-09-30T15:12:41;12.40;99.90
22224;DHT22;11281;52.194;21.006;2022-09-30T15:17:20;12.30;99.90
22224;DHT22;11281;52.194;21.006;2022-09-30T15:21:44;12.10;99.90
22224;DHT22;11281;52.194;21.006;2022-09-30T15:26:10;11.90;99.90
22224;DHT22;11281;52.194;21.006;2022-09-30T15:30:32;11.80;99.90
22224;DHT22;11281;52.194;21.006;2022-09-30T15:34:54;11.70;99.90
22224;DHT22;11281;52.194;21.006;2022-09-30T15:39:24;11.60;99.90
22224;DHT22;11281;52.194;21.006;2022-09-30T15:44:36;11.50;99.90
22224;DHT22;11281;52.194;21.006;2022-09-30T15:49:05;11.50;99.90
22224;DHT22;11281;52.194;21.006;2022-09-30T15:53:49;11.40;99.90
22224;DHT22;11281;52.194;21.006;2022-09-30T15:58:40;11.30;99.90
22224;DHT22;11281;52.194;21.006;2022-09-30T16:03:24;11.20;99.90
22224;DHT22;11281;52.194;21.006;2022-09-30T16:07:47;11.10;99.90
22224;DHT22;11281;52.194;21.006;2022-09-30T16:12:18;11.00;99.90
22224;DHT22;11281;52.194;21.006;2022-09-30T16:16:47;11.00;99.90
22224;DHT22;11281;52.194;21.006;2022-09-30T16:26:22;10.80;99.90
22224;DHT22;11281;52.194;21.006;2022-09-30T16:30:51;10.80;99.90
22224;DHT22;11281;52.194;21.006;2022-09-30T16:39:39;10.70;99.90
22224;DHT22;11281;52.194;21.006;2022-09-30T16:44:01;10.70;99.90
22224;DHT22;11281;52.194;21.006;2022-09-30T16:48:24;10.60;99.90
22224;DHT22;11281;52.194;21.006;2022-09-30T16:52:46;10.60;99.90
22224;DHT22;11281;52.194;21.006;2022-09-30T16:57:11;10.60;99.90
22224;DHT22;11281;52.194;21.006;2022-09-30T17:01:34;10.50;99.90
22224;DHT22;11281;52.194;21.006;2022-09-30T17:05:56;10.50;99.90
22224;DHT22;11281;52.194;21.006;2022-09-30T17:10:21;10.50;99.90
22224;DHT22;11281;52.194;21.006;2022-09-30T17:14:45;10.40;99.90
22224;DHT22;11281;52.194;21.006;2022-09-30T17:19:07;10.50;99.90
22224;DHT22;11281;52.194;21.006;2022-09-30T17:23:29;10.40;99.90
22224;DHT22;11281;52.194;21.006;2022-09-30T17:27:51;10.40;99.90
22224;DHT22;11281;52.194;21.006;2022-09-30T17:32:12;10.40;99.90
22224;DHT22;11281;52.194;21.006;2022-09-30T17:36:34;10.30;99.90
22224;DHT22;11281;52.194;21.006;2022-09-30T17:40:57;10.30;99.90
22224;DHT22;11281;52.194;21.006;2022-09-30T17:45:41;10.30;99.90
22224;DHT22;11281;52.194;21.006;2022-09-30T17:50:04;10.20;99.90
22224;DHT22;11281;52.194;21.006;2022-09-30T17:54:27;10.30;99.90
22224;DHT22;11281;52.194;21.006;2022-09-30T17:58:49;10.30;99.90
22224;DHT22;11281;52.194;21.006;2022-09-30T18:03:11;10.20;99.90
22224;DHT22;11281;52.194;21.006;2022-09-30T18:07:33;10.30;99.90
22224;DHT22;11281;52.194;21.006;2022-09-30T18:11:54;10.20;99.90
22224;DHT22;11281;52.194;21.006;2022-09-30T18:16:16;10.20;99.90
22224;DHT22;11281;52.194;21.006;2022-09-30T18:20:48;10.20;99.90
22224;DHT22;11281;52.194;21.006;2022-09-30T18:25:10;10.20;99.90
22224;DHT22;11281;52.194;21.006;2022-09-30T18:29:41;10.20;99.90
22224;DHT22;11281;52.194;21.006;2022-09-30T18:34:03;10.20;99.90
22224;DHT22;11281;52.194;21.006;2022-09-30T18:38:25;10.20;99.90
22224;DHT22;11281;52.194;21.006;2022-09-30T18:42:55;10.10;99.90
22224;DHT22;11281;52.194;21.006;2022-09-30T18:47:22;10.10;99.90
22224;DHT22;11281;52.194;21.006;2022-09-30T18:51:44;10.10;99.90
22224;DHT22;11281;52.194;21.006;2022-09-30T18:56:06;10.10;99.90
22224;DHT22;11281;52.194;21.006;2022-09-30T19:00:28;10.10;99.90
22224;DHT22;11281;52.194;21.006;2022-09-30T19:04:51;10.10;99.90
22224;DHT22;11281;52.194;21.006;2022-09-30T19:09:13;10.10;99.90
22224;DHT22;11281;52.194;21.006;2022-09-30T19:13:37;10.10;99.90
22224;DHT22;11281;52.194;21.006;2022-09-30T19:17:59;10.10;99.90
22224;DHT22;11281;52.194;21.006;2022-09-30T19:22:21;10.20;99.90
22224;DHT22;11281;52.194;21.006;2022-09-30T19:26:45;10.20;99.90
22224;DHT22;11281;52.194;21.006;2022-09-30T19:31:13;10.20;99.90
22224;DHT22;11281;52.194;21.006;2022-09-30T19:35:37;10.20;99.90
22224;DHT22;11281;52.194;21.006;2022-09-30T19:39:59;10.20;99.90
22224;DHT22;11281;52.194;21.006;2022-09-30T19:44:20;10.20;99.90
22224;DHT22;11281;52.194;21.006;2022-09-30T19:48:42;10.10;99.90
22224;DHT22;11281;52.194;21.006;2022-09-30T19:53:05;10.10;99.90
22224;DHT22;11281;52.194;21.006;2022-09-30T19:57:27;10.10;99.90
22224;DHT22;11281;52.194;21.006;2022-09-30T20:01:49;10.10;99.90
22224;DHT22;11281;52.194;21.006;2022-09-30T20:06:12;10.10;99.90
22224;DHT22;11281;52.194;21.006;2022-09-30T20:10:36;10.10;99.90
22224;DHT22;11281;52.194;21.006;2022-09-30T20:14:58;10.10;99.90
22224;DHT22;11281;52.194;21.006;2022-09-30T20:19:38;10.10;99.90
22224;DHT22;11281;52.194;21.006;2022-09-30T20:24:00;10.10;99.90
22224;DHT22;11281;52.194;21.006;2022-09-30T20:28:22;10.00;99.90
22224;DHT22;11281;52.194;21.006;2022-09-30T20:32:44;10.00;99.90
22224;DHT22;11281;52.194;21.006;2022-09-30T20:37:06;10.00;99.90
22224;DHT22;11281;52.194;21.006;2022-09-30T20:41:32;10.00;99.90
22224;DHT22;11281;52.194;21.006;2022-09-30T20:46:01;10.00;99.90
22224;DHT22;11281;52.194;21.006;2022-09-30T20:50:24;10.00;99.90
22224;DHT22;11281;52.194;21.006;2022-09-30T20:54:55;10.00;99.90
22224;DHT22;11281;52.194;21.006;2022-09-30T20:59:20;10.00;99.90
22224;DHT22;11281;52.194;21.006;2022-09-30T21:03:44;9.90;99.90
22224;DHT22;11281;52.194;21.006;2022-09-30T21:08:10;9.90;99.90
22224;DHT22;11281;52.194;21.006;2022-09-30T21:12:34;9.90;99.90
22224;DHT22;11281;52.194;21.006;2022-09-30T21:16:56;9.80;99.90
22224;DHT22;11281;52.194;21.006;2022-09-30T21:21:20;9.80;99.90
22224;DHT22;11281;52.194;21.006;2022-09-30T21:25:43;9.80;99.90
22224;DHT22;11281;52.194;21.006;2022-09-30T21:30:06;9.70;99.90
22224;DHT22;11281;52.194;21.006;2022-09-30T21:34:28;9.70;99.90
22224;DHT22;11281;52.194;21.006;2022-09-30T21:38:50;9.80;99.90
22224;DHT22;11281;52.194;21.006;2022-09-30T21:43:12;9.80;99.90
22224;DHT22;11281;52.194;21.006;2022-09-30T21:47:34;9.70;99.90
22224;DHT22;11281;52.194;21.006;2022-09-30T21:51:58;9.80;99.90
22224;DHT22;11281;52.194;21.006;2022-09-30T21:56:20;9.80;99.90
22224;DHT22;11281;52.194;21.006;2022-09-30T22:00:42;9.70;99.90
22224;DHT22;11281;52.194;21.006;2022-09-30T22:05:04;9.70;99.90
22224;DHT22;11281;52.194;21.006;2022-09-30T22:09:26;9.80;99.90
22224;DHT22;11281;52.194;21.006;2022-09-30T22:13:49;9.80;99.90
22224;DHT22;11281;52.194;21.006;2022-09-30T22:18:17;9.80;99.90
22224;DHT22;11281;52.194;21.006;2022-09-30T22:22:39;9.90;99.90
22224;DHT22;11281;52.194;21.006;2022-09-30T22:27:02;9.90;99.90
22224;DHT22;11281;52.194;21.006;2022-09-30T22:31:29;9.90;99.90
22224;DHT22;11281;52.194;21.006;2022-09-30T22:35:53;9.80;99.90
22224;DHT22;11281;52.194;21.006;2022-09-30T22:40:34;9.80;99.90
22224;DHT22;11281;52.194;21.006;2022-09-30T22:44:56;9.80;99.90
22224;DHT22;11281;52.194;21.006;2022-09-30T22:49:18;9.80;99.90
22224;DHT22;11281;52.194;21.006;2022-09-30T22:53:40;9.80;99.90
22224;DHT22;11281;52.194;21.006;2022-09-30T22:58:02;9.80;99.90
22224;DHT22;11281;52.194;21.006;2022-09-30T23:02:24;9.80;99.90
22224;DHT22;11281;52.194;21.006;2022-09-30T23:06:47;9.70;99.90
22224;DHT22;11281;52.194;21.006;2022-09-30T23:11:12;9.70;99.90
22224;DHT22;11281;52.194;21.006;2022-09-30T23:15:34;9.70;99.90
22224;DHT22;11281;52.194;21.006;2022-09-30T23:19:56;9.70;99.90
22224;DHT22;11281;52.194;21.006;2022-09-30T23:24:18;9.70;99.90
22224;DHT22;11281;52.194;21.006;2022-09-30T23:28:40;9.70;99.90
22224;DHT22;11281;52.194;21.006;2022-09-30T23:33:02;9.60;99.90
22224;DHT22;11281;52.194;21.006;2022-09-30T23:37:24;9.70;99.90
22224;DHT22;11281;52.194;21.006;2022-09-30T23:41:47;9.70;99.90
22224;DHT22;11281;52.194;21.006;2022-09-30T23:46:09;9.60;99.90
22224;DHT22;11281;52.194;21.006;2022-09-30T23:50:31;9.70;99.90
22224;DHT22;11281;52.194;21.006;2022-09-30T23:54:53;9.60;99.90
22224;DHT22;11281;52.194;21.006;2022-09-30T23:59:15;9.60;99.90
